createdAt,value
2023-06-10T00:01:00.993Z,25.70
2023-06-10T00:03:28.404Z,25.70
2023-06-10T00:05:55.831Z,25.60
2023-06-10T00:08:23.255Z,25.60
2023-06-10T00:10:50.632Z,25.50
2023-06-10T00:13:21.407Z,25.50
2023-06-10T00:15:49.000Z,25.40
2023-06-10T00:18:17.646Z,25.40
2023-06-10T00:20:45.116Z,25.30
2023-06-10T00:23:12.971Z,25.30
2023-06-10T00:25:40.258Z,25.20
2023-06-10T00:28:07.897Z,25.20
2023-06-10T00:30:35.471Z,25.20
2023-06-10T00:33:02.880Z,25.10
2023-06-10T00:35:30.347Z,25.10
2023-06-10T00:37:57.697Z,25.00
2023-06-10T00:40:25.056Z,25.00
2023-06-10T00:42:52.422Z,24.90
2023-06-10T00:45:19.953Z,24.90
2023-06-10T00:47:47.482Z,24.90
2023-06-10T00:50:14.828Z,24.80
2023-06-10T00:53:01.745Z,24.80
2023-06-10T00:56:45.839Z,24.70
2023-06-10T00:59:13.272Z,24.70
2023-06-10T01:01:40.883Z,24.60
2023-06-10T01:04:12.667Z,24.60
2023-06-10T01:10:52.517Z,24.50
2023-06-10T01:13:25.082Z,24.50
2023-06-10T01:15:53.802Z,24.40
2023-06-10T01:18:21.170Z,24.30
2023-06-10T01:20:51.692Z,24.30
2023-06-10T01:23:19.565Z,24.20
2023-06-10T01:26:03.769Z,24.20
2023-06-10T01:28:40.001Z,24.20
2023-06-10T01:31:37.663Z,24.10
2023-06-10T01:34:15.577Z,24.00
2023-06-10T01:36:47.409Z,24.00
2023-06-10T01:39:17.891Z,23.90
2023-06-10T01:41:45.858Z,23.90
2023-06-10T01:44:13.521Z,23.80
2023-06-10T01:46:40.972Z,23.70
2023-06-10T01:49:08.558Z,23.70
2023-06-10T01:51:36.072Z,23.60
2023-06-10T01:54:03.463Z,23.60
2023-06-10T01:56:30.950Z,23.60
2023-06-10T01:59:00.377Z,23.50
2023-06-10T02:01:28.115Z,23.40
2023-06-10T02:03:55.471Z,23.40
2023-06-10T02:06:23.087Z,23.40
2023-06-10T02:08:50.442Z,23.30
2023-06-10T02:11:17.870Z,23.30
2023-06-10T02:13:45.308Z,23.20
2023-06-10T02:16:13.855Z,23.20
2023-06-10T02:18:44.468Z,23.10
2023-06-10T02:21:12.223Z,23.00
2023-06-10T02:23:39.992Z,23.00
2023-06-10T02:26:07.341Z,23.00
2023-06-10T02:28:34.696Z,22.90
2023-06-10T02:31:02.048Z,22.90
2023-06-10T02:33:29.540Z,22.80
2023-06-10T02:35:57.904Z,22.80
2023-06-10T02:38:25.279Z,22.80
2023-06-10T02:40:52.721Z,22.70
2023-06-10T02:43:20.272Z,22.70
2023-06-10T02:45:47.900Z,22.60
2023-06-10T02:48:15.488Z,22.60
2023-06-10T02:50:42.933Z,22.60
2023-06-10T02:53:10.276Z,22.50
2023-06-10T02:55:37.664Z,22.50
2023-06-10T02:58:05.236Z,22.50
2023-06-10T03:00:32.800Z,22.40
2023-06-10T03:03:04.025Z,22.40
2023-06-10T03:05:31.605Z,22.40
2023-06-10T03:07:59.094Z,22.30
2023-06-10T03:10:26.642Z,22.30
2023-06-10T03:12:54.011Z,22.30
2023-06-10T03:15:23.099Z,22.20
2023-06-10T03:17:50.623Z,22.20
2023-06-10T03:20:18.121Z,22.20
2023-06-10T03:22:48.238Z,22.10
2023-06-10T03:25:16.214Z,22.10
2023-06-10T03:27:44.918Z,22.10
2023-06-10T03:30:14.407Z,22.10
2023-06-10T03:32:42.398Z,22.10
2023-06-10T03:35:10.284Z,22.10
2023-06-10T03:37:37.986Z,22.00
2023-06-10T03:40:07.048Z,22.00
2023-06-10T03:42:34.562Z,22.00
2023-06-10T03:45:02.508Z,22.00
2023-06-10T03:47:39.245Z,22.00
2023-06-10T03:50:07.621Z,22.00
2023-06-10T03:52:35.806Z,22.00
2023-06-10T03:55:06.411Z,21.90
2023-06-10T03:57:34.044Z,21.90
2023-06-10T04:00:01.619Z,21.90
2023-06-10T04:02:29.917Z,21.90
2023-06-10T04:04:57.240Z,21.90
2023-06-10T04:07:25.050Z,21.90
2023-06-10T04:09:52.514Z,21.90
2023-06-10T04:12:19.836Z,21.90
2023-06-10T04:14:47.045Z,21.90
2023-06-10T04:17:14.402Z,21.90
2023-06-10T04:19:41.812Z,21.90
2023-06-10T04:22:09.241Z,21.90
2023-06-10T04:24:36.966Z,21.90
2023-06-10T04:27:04.579Z,21.90
2023-06-10T04:29:32.004Z,22.00
2023-06-10T04:31:59.428Z,21.90
2023-06-10T04:34:26.964Z,22.00
2023-06-10T04:36:54.357Z,22.00
2023-06-10T04:39:21.932Z,22.00
2023-06-10T04:41:49.307Z,22.00
2023-06-10T04:44:32.645Z,22.10
2023-06-10T04:46:59.904Z,22.10
2023-06-10T04:49:27.210Z,22.10
2023-06-10T04:51:54.479Z,22.20
2023-06-10T04:54:22.057Z,22.20
2023-06-10T04:56:49.245Z,22.20
2023-06-10T04:59:16.723Z,22.30
2023-06-10T05:01:46.899Z,22.30
2023-06-10T05:04:14.472Z,22.40
2023-06-10T05:06:41.872Z,22.40
2023-06-10T05:09:09.147Z,22.50
2023-06-10T05:11:36.368Z,22.50
2023-06-10T05:14:03.710Z,22.60
2023-06-10T05:16:31.219Z,22.60
2023-06-10T05:18:58.683Z,22.70
2023-06-10T05:21:26.224Z,22.70
2023-06-10T05:23:53.583Z,22.70
2023-06-10T05:26:21.063Z,22.80
2023-06-10T05:28:49.158Z,22.80
2023-06-10T05:31:16.915Z,22.90
2023-06-10T05:33:44.387Z,23.00
2023-06-10T05:36:11.726Z,23.00
2023-06-10T05:42:48.665Z,23.10
2023-06-10T05:45:16.674Z,23.20
2023-06-10T05:47:44.221Z,23.30
2023-06-10T05:50:11.962Z,23.30
2023-06-10T05:52:41.547Z,23.40
2023-06-10T05:55:11.580Z,23.50
2023-06-10T05:57:39.424Z,23.60
2023-06-10T06:00:07.911Z,23.60
2023-06-10T06:02:35.416Z,23.70
2023-06-10T06:05:02.916Z,23.70
2023-06-10T06:07:31.242Z,23.80
2023-06-10T06:09:58.592Z,23.80
2023-06-10T06:12:26.164Z,23.90
2023-06-10T06:14:53.395Z,24.00
2023-06-10T06:17:20.986Z,24.00
2023-06-10T06:19:49.223Z,24.10
2023-06-10T06:22:16.509Z,24.20
2023-06-10T06:24:44.056Z,24.30
2023-06-10T06:27:11.731Z,24.40
2023-06-10T06:29:39.185Z,24.50
2023-06-10T06:32:08.300Z,24.70
2023-06-10T06:34:35.485Z,24.80
2023-06-10T06:37:03.109Z,25.00
2023-06-10T06:39:31.558Z,25.30
2023-06-10T06:41:58.889Z,25.50
2023-06-10T06:44:26.222Z,25.70
2023-06-10T06:46:53.536Z,25.90
2023-06-10T06:49:20.867Z,26.20
2023-06-10T06:51:48.179Z,26.40
2023-06-10T06:54:15.501Z,26.60
2023-06-10T06:56:42.862Z,26.70
2023-06-10T06:59:10.170Z,26.90
2023-06-10T07:01:37.392Z,27.10
2023-06-10T07:04:04.960Z,27.30
2023-06-10T07:06:33.699Z,27.50
2023-06-10T07:09:02.871Z,27.70
2023-06-10T07:11:30.302Z,27.90
2023-06-10T07:13:58.157Z,28.10
2023-06-10T07:16:25.675Z,28.30
2023-06-10T07:18:54.889Z,28.50
2023-06-10T07:21:23.841Z,28.70
2023-06-10T07:23:54.963Z,28.90
2023-06-10T07:26:24.371Z,29.10
2023-06-10T07:28:51.797Z,29.30
2023-06-10T07:31:19.480Z,29.40
2023-06-10T07:33:48.216Z,29.60
2023-06-10T07:36:15.571Z,29.70
2023-06-10T07:38:43.726Z,29.80
2023-06-10T07:41:12.017Z,29.90
2023-06-10T07:43:39.709Z,30.00
2023-06-10T07:46:07.287Z,30.10
2023-06-10T07:49:12.052Z,30.30
2023-06-10T07:51:39.383Z,30.40
2023-06-10T07:54:06.785Z,30.60
2023-06-10T07:56:34.320Z,30.70
2023-06-10T07:59:01.832Z,30.80
2023-06-10T08:01:29.215Z,31.00
2023-06-10T08:03:56.630Z,31.20
2023-06-10T08:06:23.963Z,31.30
2023-06-10T08:08:52.699Z,31.50
2023-06-10T08:11:20.151Z,31.70
2023-06-10T08:13:47.535Z,31.90
2023-06-10T08:16:14.910Z,32.00
2023-06-10T08:18:42.576Z,32.10
2023-06-10T08:21:09.869Z,32.20
2023-06-10T08:23:37.060Z,32.30
2023-06-10T08:26:04.372Z,32.40
2023-06-10T08:28:32.033Z,32.50
2023-06-10T08:30:59.310Z,32.60
2023-06-10T08:33:26.676Z,32.70
2023-06-10T08:35:53.977Z,32.80
2023-06-10T08:38:21.382Z,33.00
2023-06-10T08:40:48.703Z,33.00
2023-06-10T08:43:30.962Z,33.10
2023-06-10T08:46:03.319Z,33.20
2023-06-10T08:48:32.861Z,33.40
2023-06-10T08:51:01.675Z,33.50
2023-06-10T08:53:33.326Z,33.60
2023-06-10T08:56:05.687Z,33.70
2023-06-10T08:58:36.674Z,33.80
2023-06-10T09:01:04.303Z,33.90
2023-06-10T09:03:33.132Z,34.00
2023-06-10T09:06:00.969Z,34.10
2023-06-10T09:08:28.777Z,34.20
2023-06-10T09:10:58.441Z,34.40
2023-06-10T09:13:25.996Z,34.50
2023-06-10T09:15:53.535Z,34.70
2023-06-10T09:18:21.663Z,34.80
2023-06-10T09:20:49.129Z,34.80
2023-06-10T09:23:19.415Z,34.90
2023-06-10T09:25:46.682Z,34.90
2023-06-10T09:28:17.231Z,35.00
2023-06-10T09:30:44.552Z,35.10
2023-06-10T09:33:16.705Z,35.20
2023-06-10T09:35:53.115Z,35.20
2023-06-10T09:38:24.503Z,35.30
2023-06-10T09:40:53.916Z,35.30
2023-06-10T09:43:22.711Z,35.40
2023-06-10T09:45:58.521Z,35.40
2023-06-10T09:48:31.310Z,35.30
2023-06-10T09:50:58.850Z,35.40
2023-06-10T09:53:26.473Z,35.50
2023-06-10T09:55:54.136Z,35.50
2023-06-10T09:58:50.692Z,35.60
2023-06-10T10:01:18.477Z,35.70
2023-06-10T10:03:53.362Z,35.90
2023-06-10T10:06:22.116Z,35.90
2023-06-10T10:08:53.068Z,36.10
2023-06-10T10:11:27.439Z,36.20
2023-06-10T10:13:55.430Z,36.20
2023-06-10T10:17:18.950Z,36.30
2023-06-10T10:20:05.010Z,36.30
2023-06-10T10:22:43.100Z,36.40
2023-06-10T10:25:22.071Z,36.50
2023-06-10T10:28:18.191Z,36.60
2023-06-10T10:30:58.318Z,36.70
2023-06-10T10:33:55.784Z,36.70
2023-06-10T10:36:23.834Z,36.80
2023-06-10T10:39:10.785Z,36.80
2023-06-10T10:41:39.805Z,36.80
2023-06-10T10:44:11.852Z,36.90
2023-06-10T10:46:52.817Z,36.90
2023-06-10T10:49:21.813Z,36.80
2023-06-10T10:52:03.130Z,36.80
2023-06-10T10:54:36.932Z,36.70
2023-06-10T10:57:25.447Z,36.70
2023-06-10T10:59:57.300Z,36.70
2023-06-10T11:02:45.431Z,36.80
2023-06-10T11:05:23.139Z,36.80
2023-06-10T11:07:59.098Z,36.90
2023-06-10T11:10:36.237Z,36.90
2023-06-10T11:13:15.104Z,37.00
2023-06-10T11:15:51.555Z,37.10
2023-06-10T11:18:30.408Z,37.10
2023-06-10T11:21:04.299Z,37.20
2023-06-10T11:23:34.342Z,37.20
2023-06-10T11:26:33.372Z,37.20
2023-06-10T11:29:00.889Z,37.30
2023-06-10T11:31:51.862Z,37.30
2023-06-10T11:34:29.104Z,37.30
2023-06-10T11:36:56.514Z,37.30
2023-06-10T11:39:25.828Z,37.40
2023-06-10T11:41:53.937Z,37.60
2023-06-10T11:44:21.396Z,37.60
2023-06-10T11:46:52.767Z,37.80
2023-06-10T11:49:22.279Z,38.00
2023-06-10T11:51:53.096Z,38.20
2023-06-10T11:54:20.668Z,38.30
2023-06-10T11:56:48.932Z,38.40
2023-06-10T11:59:16.467Z,38.40
2023-06-10T12:01:46.539Z,38.40
2023-06-10T12:04:17.217Z,38.40
2023-06-10T12:06:53.564Z,38.40
2023-06-10T12:09:30.188Z,38.30
2023-06-10T12:12:07.393Z,38.30
2023-06-10T12:15:00.397Z,38.40
2023-06-10T12:17:35.626Z,38.40
2023-06-10T12:20:06.687Z,38.40
2023-06-10T12:22:45.175Z,38.60
2023-06-10T12:25:14.174Z,38.70
2023-06-10T12:27:57.133Z,39.00
2023-06-10T12:30:30.316Z,39.20
2023-06-10T12:32:58.563Z,39.30
2023-06-10T12:35:29.835Z,39.30
2023-06-10T12:38:08.245Z,39.40
2023-06-10T12:40:41.286Z,39.40
2023-06-10T12:43:09.154Z,39.40
2023-06-10T12:45:44.487Z,39.50
2023-06-10T12:48:24.714Z,39.60
2023-06-10T12:50:57.842Z,39.70
2023-06-10T12:53:29.491Z,39.80
2023-06-10T12:55:59.345Z,39.80
2023-06-10T12:58:26.637Z,39.70
2023-06-10T13:00:54.430Z,39.50
2023-06-10T13:03:22.156Z,39.30
2023-06-10T13:05:49.845Z,39.20
2023-06-10T13:08:17.502Z,39.10
2023-06-10T13:10:44.893Z,39.10
2023-06-10T13:13:12.362Z,39.20
2023-06-10T13:15:43.550Z,39.30
2023-06-10T13:18:11.933Z,39.40
2023-06-10T13:20:39.532Z,39.60
2023-06-10T13:23:06.990Z,39.80
2023-06-10T13:25:34.373Z,40.00
2023-06-10T13:28:02.506Z,40.30
2023-06-10T13:30:30.024Z,40.50
2023-06-10T13:32:57.436Z,40.70
2023-06-10T13:35:27.489Z,41.00
2023-06-10T13:37:54.704Z,41.00
2023-06-10T13:40:22.191Z,40.90
2023-06-10T13:42:52.239Z,40.70
2023-06-10T13:45:19.577Z,40.40
2023-06-10T13:47:46.994Z,40.20
2023-06-10T13:50:14.774Z,40.10
2023-06-10T13:52:42.108Z,40.10
2023-06-10T13:55:10.687Z,40.10
2023-06-10T13:57:38.439Z,40.00
2023-06-10T14:00:06.906Z,40.10
2023-06-10T14:02:34.419Z,40.10
2023-06-10T14:05:02.916Z,40.10
2023-06-10T14:07:30.357Z,40.00
2023-06-10T14:09:57.684Z,39.90
2023-06-10T14:12:24.927Z,39.60
2023-06-10T14:14:52.128Z,39.30
2023-06-10T14:17:19.591Z,39.20
2023-06-10T14:19:47.281Z,39.20
2023-06-10T14:22:14.639Z,39.30
2023-06-10T14:24:41.995Z,39.40
2023-06-10T14:27:09.395Z,39.60
2023-06-10T14:29:36.831Z,39.80
2023-06-10T14:32:07.460Z,40.10
2023-06-10T14:34:36.489Z,40.40
2023-06-10T14:37:08.855Z,40.70
2023-06-10T14:39:36.587Z,41.00
2023-06-10T14:42:07.007Z,41.10
2023-06-10T14:44:34.543Z,41.10
2023-06-10T14:47:02.223Z,41.00
2023-06-10T14:49:31.876Z,40.80
2023-06-10T14:51:59.274Z,40.60
2023-06-10T14:54:26.536Z,40.50
2023-06-10T14:56:54.395Z,40.60
2023-06-10T14:59:24.908Z,40.60
2023-06-10T15:01:52.355Z,40.80
2023-06-10T15:04:22.956Z,41.00
2023-06-10T15:06:52.365Z,41.20
2023-06-10T15:09:19.846Z,41.30
2023-06-10T15:11:47.122Z,41.30
2023-06-10T15:14:14.562Z,41.10
2023-06-10T15:16:48.331Z,40.90
2023-06-10T15:19:15.957Z,40.70
2023-06-10T15:21:43.338Z,40.40
2023-06-10T15:24:11.880Z,40.20
2023-06-10T15:26:39.408Z,40.10
2023-06-10T15:29:07.405Z,40.10
2023-06-10T15:31:34.930Z,40.00
2023-06-10T15:34:02.599Z,39.90
2023-06-10T15:36:30.075Z,39.70
2023-06-10T15:39:04.463Z,39.40
2023-06-10T15:41:31.941Z,39.10
2023-06-10T15:44:01.089Z,38.80
2023-06-10T15:46:32.666Z,38.60
2023-06-10T15:48:59.998Z,38.40
2023-06-10T15:51:27.665Z,38.40
2023-06-10T15:53:55.400Z,38.40
2023-06-10T15:56:23.909Z,38.50
2023-06-10T15:58:51.338Z,38.50
2023-06-10T16:01:19.025Z,38.60
2023-06-10T16:03:46.488Z,38.50
2023-06-10T16:06:19.910Z,38.30
2023-06-10T16:08:48.089Z,38.00
2023-06-10T16:11:15.643Z,37.70
2023-06-10T16:13:43.002Z,37.50
2023-06-10T16:16:10.559Z,37.20
2023-06-10T16:18:37.868Z,36.90
2023-06-10T16:21:06.099Z,36.70
2023-06-10T16:23:33.746Z,36.50
2023-06-10T16:26:01.131Z,36.20
2023-06-10T16:28:28.638Z,36.00
2023-06-10T16:30:56.205Z,35.80
2023-06-10T16:33:23.947Z,35.60
2023-06-10T16:35:51.601Z,35.50
2023-06-10T16:38:19.024Z,35.30
2023-06-10T16:40:46.315Z,35.20
2023-06-10T16:43:13.678Z,35.00
2023-06-10T16:45:41.106Z,34.90
2023-06-10T16:48:08.690Z,34.70
2023-06-10T16:50:36.248Z,34.70
2023-06-10T16:53:03.866Z,34.50
2023-06-10T16:55:31.116Z,34.50
2023-06-10T16:57:58.450Z,34.50
2023-06-10T17:00:25.972Z,34.40
2023-06-10T17:02:53.582Z,34.40
2023-06-10T17:05:20.933Z,34.40
2023-06-10T17:07:48.559Z,34.40
2023-06-10T17:10:16.066Z,34.50
2023-06-10T17:12:43.635Z,34.60
2023-06-10T17:15:11.697Z,34.60
2023-06-10T17:17:39.381Z,34.60
2023-06-10T17:20:08.391Z,34.60
2023-06-10T17:22:36.053Z,34.60
2023-06-10T17:25:03.303Z,34.50
2023-06-10T17:27:30.709Z,34.50
2023-06-10T17:29:58.119Z,34.50
2023-06-10T17:32:25.441Z,34.40
2023-06-10T17:34:53.005Z,34.40
2023-06-10T17:37:20.365Z,34.30
2023-06-10T17:39:47.724Z,34.20
2023-06-10T17:42:15.388Z,34.10
2023-06-10T17:44:43.249Z,33.90
2023-06-10T17:47:10.590Z,33.80
2023-06-10T17:49:38.044Z,33.60
2023-06-10T17:52:06.046Z,33.50
2023-06-10T17:54:33.388Z,33.40
2023-06-10T17:57:00.981Z,33.20
2023-06-10T17:59:28.563Z,33.10
2023-06-10T18:01:56.048Z,33.00
2023-06-10T18:04:24.008Z,33.00
2023-06-10T18:06:51.485Z,32.90
2023-06-10T18:09:18.751Z,32.80
2023-06-10T18:11:46.190Z,32.80
2023-06-10T18:14:13.548Z,32.70
2023-06-10T18:16:41.358Z,32.70
2023-06-10T18:19:08.791Z,32.60
2023-06-10T18:21:37.381Z,32.50
2023-06-10T18:24:05.908Z,32.50
2023-06-10T18:26:33.296Z,32.40
2023-06-10T18:29:00.617Z,32.30
2023-06-10T18:31:31.107Z,32.30
2023-06-10T18:33:58.702Z,32.20
2023-06-10T18:36:26.151Z,32.20
2023-06-10T18:38:53.654Z,32.10
2023-06-10T18:41:22.361Z,32.00
2023-06-10T18:43:49.694Z,32.00
2023-06-10T18:46:17.333Z,31.90
2023-06-10T18:48:46.672Z,31.80
2023-06-10T18:51:13.942Z,31.80
2023-06-10T18:53:41.292Z,31.70
2023-06-10T18:56:09.526Z,31.60
2023-06-10T18:58:37.003Z,31.50
2023-06-10T19:01:05.635Z,31.50
2023-06-10T19:03:33.471Z,31.40
2023-06-10T19:06:01.812Z,31.40
2023-06-10T19:08:29.413Z,31.30
2023-06-10T19:10:57.075Z,31.20
2023-06-10T19:13:26.238Z,31.10
2023-06-10T19:15:53.674Z,31.10
2023-06-10T19:18:21.414Z,31.00
2023-06-10T19:20:48.958Z,30.90
2023-06-10T19:23:16.398Z,30.90
2023-06-10T19:25:44.018Z,30.80
2023-06-10T19:28:11.699Z,30.70
2023-06-10T19:30:41.183Z,30.70
2023-06-10T19:33:10.881Z,30.60
2023-06-10T19:35:39.400Z,30.50
2023-06-10T19:38:06.870Z,30.50
2023-06-10T19:40:34.170Z,30.40
2023-06-10T19:43:02.898Z,30.30
2023-06-10T19:45:30.389Z,30.20
2023-06-10T19:47:57.723Z,30.10
2023-06-10T19:50:25.580Z,30.10
2023-06-10T19:52:52.932Z,30.00
2023-06-10T19:55:21.517Z,29.90
2023-06-10T19:57:48.962Z,29.90
2023-06-10T20:00:17.574Z,29.80
2023-06-10T20:02:44.972Z,29.70
2023-06-10T20:05:12.528Z,29.70
2023-06-10T20:07:43.432Z,29.60
2023-06-10T20:10:11.149Z,29.50
2023-06-10T20:12:38.462Z,29.50
2023-06-10T20:15:09.031Z,29.30
2023-06-10T20:17:37.131Z,29.30
2023-06-10T20:20:05.206Z,29.20
2023-06-10T20:22:32.673Z,29.20
2023-06-10T20:25:14.622Z,29.10
2023-06-10T20:27:42.162Z,29.10
2023-06-10T20:30:10.274Z,29.00
2023-06-10T20:32:37.766Z,28.90
2023-06-10T20:35:06.213Z,28.90
2023-06-10T20:37:33.549Z,28.80
2023-06-10T20:40:00.877Z,28.80
2023-06-10T20:42:29.332Z,28.70
2023-06-10T20:44:57.181Z,28.60
2023-06-10T20:48:20.897Z,28.60
2023-06-10T20:50:48.304Z,28.60
2023-06-10T20:53:15.687Z,28.50
2023-06-10T20:55:43.133Z,28.50
2023-06-10T20:58:11.756Z,28.40
2023-06-10T21:00:39.084Z,28.30
2023-06-10T21:03:06.495Z,28.30
2023-06-10T21:05:34.241Z,28.20
2023-06-10T21:08:01.722Z,28.20
2023-06-10T21:10:29.072Z,28.10
2023-06-10T21:12:57.259Z,28.00
2023-06-10T21:15:24.736Z,28.00
2023-06-10T21:17:52.082Z,27.90
2023-06-10T21:20:19.466Z,27.90
2023-06-10T21:22:46.769Z,27.80
2023-06-10T21:25:14.281Z,27.80
2023-06-10T21:27:41.517Z,27.70
2023-06-10T21:30:09.476Z,27.70
2023-06-10T21:32:36.898Z,27.60
2023-06-10T21:35:04.692Z,27.60
2023-06-10T21:37:32.107Z,27.50
2023-06-10T21:39:59.353Z,27.50
2023-06-10T21:42:26.606Z,27.40
2023-06-10T21:44:53.849Z,27.40
2023-06-10T21:47:21.155Z,27.30
2023-06-10T21:50:26.151Z,27.20
2023-06-10T21:52:53.372Z,27.20
2023-06-10T21:55:20.844Z,27.10
2023-06-10T21:57:48.584Z,27.10
2023-06-10T22:00:16.560Z,27.00
2023-06-10T22:02:43.925Z,26.90
2023-06-10T22:05:11.369Z,26.90
2023-06-10T22:07:39.157Z,26.80
2023-06-10T22:10:07.619Z,26.80
2023-06-10T22:12:34.866Z,26.80
2023-06-10T22:15:02.039Z,26.70
2023-06-10T22:17:29.397Z,26.70
2023-06-10T22:19:57.027Z,26.60
2023-06-10T22:22:24.280Z,26.60
2023-06-10T22:24:58.058Z,26.50
2023-06-10T22:27:25.825Z,26.50
2023-06-10T22:29:53.073Z,26.50
2023-06-10T22:32:20.608Z,26.40
2023-06-10T22:34:48.004Z,26.40
2023-06-10T22:37:15.623Z,26.40
2023-06-10T22:39:42.919Z,26.30
2023-06-10T22:42:10.842Z,26.30
2023-06-10T22:44:38.634Z,26.30
2023-06-10T22:47:06.636Z,26.30
2023-06-10T22:49:33.841Z,26.20
2023-06-10T22:52:01.267Z,26.20
2023-06-10T22:54:28.521Z,26.20
2023-06-10T22:56:56.079Z,26.20
2023-06-10T22:59:23.587Z,26.20
2023-06-10T23:01:50.927Z,26.10
2023-06-10T23:04:18.461Z,26.10
2023-06-10T23:06:47.068Z,26.10
2023-06-10T23:09:15.617Z,26.10
2023-06-10T23:11:43.310Z,26.00
2023-06-10T23:14:11.072Z,26.00
2023-06-10T23:16:46.878Z,26.00
2023-06-10T23:19:28.272Z,26.00
2023-06-10T23:21:59.905Z,26.00
2023-06-10T23:24:30.789Z,25.90
2023-06-10T23:27:02.872Z,25.90
2023-06-10T23:29:30.131Z,25.80
2023-06-10T23:31:57.624Z,25.80
2023-06-10T23:34:25.324Z,25.70
2023-06-10T23:36:53.888Z,25.70
2023-06-10T23:39:21.670Z,25.70
2023-06-10T23:41:48.998Z,25.60
2023-06-10T23:44:16.631Z,25.60
2023-06-10T23:46:43.860Z,25.50
2023-06-10T23:49:11.048Z,25.50
2023-06-10T23:51:38.914Z,25.50
2023-06-10T23:54:07.186Z,25.50
2023-06-10T23:56:34.726Z,25.40
2023-06-10T23:59:02.115Z,25.40
